Time;durP1;ratioP1;P1;durP2;ratioP2;P2;SDS_P1;SDS_P2;PMS_P1;PMS_P2;Temp;Humidity;BMP_temperature;BMP_pressure;BME280_temperature;BME280_humidity;BME280_pressure;Samples;Min_cycle;Max_cycle;Signal;HPM_P1;HPM_P2
2023/11/04 00:01:56;;;;;;;4.37;1.90;;;;;;;-141.84;75.86;19131.03;4919838;28;20232;-64
2023/11/04 00:04:26;;;;;;;4.83;1.87;;;;;;;-141.84;75.84;19181.81;4913802;29;20652;-64
2023/11/04 00:06:56;;;;;;;5.73;2.13;;;;;;;-141.84;76.10;19173.69;4913300;28;20236;-63
2023/11/04 00:09:25;;;;;;;5.90;2.27;;;;;;;-141.84;73.80;19165.56;4906321;29;20225;-65
2023/11/04 00:12:18;;;;;;;3.80;1.90;;;;;;;-141.84;74.76;19161.50;4903853;28;20225;-64
2023/11/04 00:14:47;;;;;;;4.70;1.83;;;;;;;-141.84;76.69;19149.31;4914082;29;20721;-66
2023/11/04 00:17:17;;;;;;;3.73;1.70;;;;;;;-141.84;77.67;19183.84;4916882;28;20677;-64
2023/11/04 00:19:46;;;;;;;4.57;2.07;;;;;;;-141.84;76.59;19147.28;4913288;29;20231;-63
2023/11/04 00:22:16;;;;;;;3.93;1.90;;;;;;;-141.84;78.08;19187.91;4909528;28;20277;-64
2023/11/04 00:24:47;;;;;;;4.67;1.90;;;;;;;-141.84;77.11;19145.25;4915061;28;20602;-64
2023/11/04 00:27:18;;;;;;;4.60;1.97;;;;;;;-141.84;78.62;19171.66;4918585;29;20233;-63
2023/11/04 00:29:48;;;;;;;3.40;1.67;;;;;;;-141.84;77.75;19141.19;4919041;28;20285;-64
2023/11/04 00:32:17;;;;;;;4.00;1.70;;;;;;;-141.84;77.67;19171.66;4911763;28;20692;-64
2023/11/04 00:34:47;;;;;;;4.83;1.80;;;;;;;-141.84;78.59;19155.41;4919354;28;20605;-63
2023/11/04 00:37:17;;;;;;;4.77;1.93;;;;;;;-141.84;79.77;19183.84;4921155;28;20244;-64
2023/11/04 00:39:50;;;;;;;2.47;1.70;;;;;;;-141.84;79.21;19171.66;4927997;28;20237;-64
2023/11/04 00:42:21;;;;;;;4.13;1.70;;;;;;;-141.84;80.25;19179.78;4920285;28;20272;-64
2023/11/04 00:44:51;;;;;;;3.77;1.60;;;;;;;-141.84;81.00;19167.59;4927670;29;20277;-64
2023/11/04 00:47:21;;;;;;;3.87;1.80;;;;;;;-141.84;80.44;19192.00;4928252;29;20243;-64
2023/11/04 00:49:50;;;;;;;4.07;1.77;;;;;;;-141.84;81.25;19214.34;4927955;29;20287;-63
2023/11/04 00:52:19;;;;;;;3.70;1.93;;;;;;;-141.84;79.31;19122.91;4920187;28;20255;-64
2023/11/04 00:54:49;;;;;;;5.53;1.80;;;;;;;-141.84;77.95;19153.38;4928253;29;20742;-64
2023/11/04 00:57:20;;;;;;;4.53;2.10;;;;;;;-141.84;78.27;19147.28;4927578;29;20300;-65
2023/11/04 00:59:50;;;;;;;5.47;1.83;;;;;;;-141.84;79.11;19183.84;4926872;28;20209;-64
2023/11/04 01:02:19;;;;;;;4.20;1.90;;;;;;;-141.84;79.08;19183.84;4918356;28;20647;-64
2023/11/04 01:04:49;;;;;;;3.80;1.67;;;;;;;-141.84;81.13;19161.50;4927367;29;20293;-64
2023/11/04 01:07:18;;;;;;;4.93;1.80;;;;;;;-141.84;80.71;19175.72;4927527;29;20237;-64
2023/11/04 01:09:48;;;;;;;3.53;1.70;;;;;;;-141.84;80.23;19189.97;4927683;29;20939;-64
2023/11/04 01:12:17;;;;;;;6.03;2.20;;;;;;;-141.84;81.18;19137.13;4919985;28;20591;-64
2023/11/04 01:14:48;;;;;;;4.57;1.83;;;;;;;-141.84;80.81;19175.72;4927676;28;20213;-65
2023/11/04 01:17:18;;;;;;;3.57;1.70;;;;;;;-141.84;81.99;19179.78;4929239;28;20304;-65
2023/11/04 01:19:47;;;;;;;7.07;1.87;;;;;;;-141.84;82.02;19192.00;4928700;28;20732;-64
2023/11/04 01:22:17;;;;;;;6.23;2.07;;;;;;;-141.84;80.76;19173.69;4922227;28;20240;-65
2023/11/04 01:24:47;;;;;;;4.40;1.87;;;;;;;-141.84;80.46;19171.66;4928318;28;20237;-64
2023/11/04 01:27:16;;;;;;;3.07;1.87;;;;;;;-141.84;80.00;19183.84;4929019;28;20226;-64
2023/11/04 01:29:47;;;;;;;3.67;1.80;;;;;;;-141.84;83.22;19220.44;4927941;28;20233;-64
2023/11/04 01:32:17;;;;;;;5.73;2.10;;;;;;;-141.84;81.20;19187.91;4922383;28;20291;-64
2023/11/04 01:34:47;;;;;;;2.73;1.63;;;;;;;-141.84;80.30;19179.78;4928240;28;20320;-63
2023/11/04 01:37:17;;;;;;;5.87;2.10;;;;;;;-141.84;79.65;19169.63;4927087;28;20324;-64
2023/11/04 01:39:47;;;;;;;6.80;2.13;;;;;;;-141.84;80.58;19161.50;4928570;28;20579;-64
2023/11/04 01:42:19;;;;;;;6.63;2.20;;;;;;;-141.84;80.89;19137.13;4921044;28;21228;-64
2023/11/04 01:44:50;;;;;;;5.33;1.83;;;;;;;-141.84;81.23;19177.75;4927584;28;20252;-63
2023/11/04 01:47:20;;;;;;;3.40;1.93;;;;;;;-141.84;80.00;19106.66;4928470;29;20244;-64
2023/11/04 01:49:49;;;;;;;3.57;2.00;;;;;;;-141.84;80.53;19194.03;4927977;29;20322;-64
2023/11/04 01:52:19;;;;;;;5.03;2.10;;;;;;;-141.84;80.20;19163.53;4921027;29;20276;-64
2023/11/04 01:54:49;;;;;;;3.63;1.80;;;;;;;-141.84;82.33;19175.72;4928395;29;20233;-64
2023/11/04 01:57:19;;;;;;;5.73;2.20;;;;;;;-141.84;84.14;19220.44;4927916;29;20236;-64
2023/11/04 01:59:50;;;;;;;3.33;1.90;;;;;;;-141.84;83.27;19208.25;4928189;28;20232;-64
2023/11/04 02:02:28;;;;;;;5.63;2.07;;;;;;;-141.84;82.99;19194.03;4919104;28;20213;-64
2023/11/04 02:05:39;;;;;;;4.17;2.00;;;;;;;-141.84;83.17;19143.22;4928089;29;20244;-64
2023/11/04 02:08:50;;;;;;;4.10;2.07;;;;;;;-141.84;83.44;19196.06;4921087;28;20265;-64
2023/11/04 02:11:25;;;;;;;5.53;1.63;;;;;;;-141.84;81.47;19157.44;4927864;28;20296;-63
2023/11/04 02:13:56;;;;;;;4.17;1.97;;;;;;;-141.84;80.45;19155.41;4917326;29;20264;-64
2023/11/04 02:17:11;;;;;;;3.87;1.70;;;;;;;-141.84;81.48;19161.50;4927599;28;20790;-64
2023/11/04 02:19:40;;;;;;;3.63;2.10;;;;;;;-141.84;81.59;19159.47;4927170;28;20655;-63
2023/11/04 02:22:53;;;;;;;4.80;2.10;;;;;;;-141.84;81.01;19137.13;4920316;28;20285;-64
2023/11/04 02:25:22;;;;;;;6.70;2.47;;;;;;;-141.84;78.94;19151.34;4927347;28;20328;-63
2023/11/04 02:27:50;;;;;;;4.37;2.17;;;;;;;-141.84;79.65;19118.84;4927371;28;20328;-64
2023/11/04 02:30:19;;;;;;;7.50;2.20;;;;;;;-141.84;81.29;19137.13;4920525;28;20244;-64
2023/11/04 02:32:48;;;;;;;5.43;2.60;;;;;;;-141.84;80.97;19175.72;4926912;28;20334;-64
2023/11/04 02:35:19;;;;;;;5.23;2.20;;;;;;;-141.84;79.29;19159.47;4927797;28;20210;-64
2023/11/04 02:37:50;;;;;;;6.33;2.00;;;;;;;-141.84;80.14;19179.78;4926455;28;20320;-64
2023/11/04 02:40:18;;;;;;;5.10;2.33;;;;;;;-141.84;79.66;19165.56;4920320;28;20305;-63
2023/11/04 02:42:47;;;;;;;7.43;2.47;;;;;;;-141.84;79.82;19179.78;4927606;28;20667;-64
2023/11/04 02:45:16;;;;;;;4.60;1.90;;;;;;;-141.84;81.41;19177.75;4926579;28;20233;-64
2023/11/04 02:47:44;;;;;;;3.87;2.40;;;;;;;-141.84;80.81;19151.34;4926998;28;20213;-64
2023/11/04 02:50:13;;;;;;;5.17;2.23;;;;;;;-141.84;82.00;19171.66;4920122;28;20300;-64
2023/11/04 02:52:42;;;;;;;4.57;2.27;;;;;;;-141.84;80.37;19159.47;4927113;28;20511;-64
2023/11/04 02:55:12;;;;;;;4.17;1.87;;;;;;;-141.84;81.08;19183.84;4927115;28;20241;-63
2023/11/04 02:57:40;;;;;;;4.83;2.53;;;;;;;-141.84;80.58;19157.44;4927466;28;20584;-63
2023/11/04 03:00:10;;;;;;;5.33;1.97;;;;;;;-141.84;81.69;19185.88;4918508;28;20712;-63
2023/11/04 03:02:40;;;;;;;5.27;2.37;;;;;;;-141.84;82.58;19157.44;4927242;28;20639;-64
2023/11/04 03:05:09;;;;;;;3.90;1.90;;;;;;;-141.84;81.79;19161.50;4927050;28;20332;-65
2023/11/04 03:07:39;;;;;;;4.53;2.13;;;;;;;-141.84;82.99;19179.78;4926927;28;20241;-63
2023/11/04 03:10:09;;;;;;;6.17;2.20;;;;;;;-141.84;83.95;19198.09;4918882;28;20607;-64
2023/11/04 03:12:39;;;;;;;5.23;2.10;;;;;;;-141.84;83.58;19163.53;4926718;28;20772;-64
2023/11/04 03:15:08;;;;;;;4.63;2.30;;;;;;;-141.84;82.77;19163.53;4926887;28;20839;-64
2023/11/04 03:17:36;;;;;;;3.00;1.70;;;;;;;-141.84;85.25;19236.69;4927724;28;20216;-64
2023/11/04 03:20:06;;;;;;;3.83;1.87;;;;;;;-141.84;85.25;19175.72;4919610;28;20233;-64
2023/11/04 03:22:35;;;;;;;6.67;2.63;;;;;;;-141.84;85.01;19185.88;4927025;28;20316;-64
2023/11/04 03:25:04;;;;;;;5.00;1.80;;;;;;;-141.84;84.64;19194.03;4926868;28;20261;-63
2023/11/04 03:27:33;;;;;;;4.63;2.00;;;;;;;-141.84;85.58;19189.97;4927133;28;20252;-64
2023/11/04 03:30:04;;;;;;;6.60;2.20;;;;;;;-141.84;85.96;19214.34;4919186;28;20240;-64
2023/11/04 03:32:32;;;;;;;3.47;1.83;;;;;;;-141.84;85.75;19189.97;4927346;28;20231;-64
2023/11/04 03:35:01;;;;;;;3.63;1.80;;;;;;;-141.84;84.73;19192.00;4926725;28;20287;-63
2023/11/04 03:37:29;;;;;;;2.93;1.70;;;;;;;-141.84;87.70;19263.09;4926676;28;20319;-64
2023/11/04 03:39:58;;;;;;;4.13;2.00;;;;;;;-141.84;88.19;19269.22;4919832;28;20280;-64
2023/11/04 03:42:27;;;;;;;4.13;2.37;;;;;;;-141.84;89.20;19309.84;4925911;28;20237;-64
2023/11/04 03:44:55;;;;;;;3.50;2.20;;;;;;;-141.84;88.19;19281.41;4918242;28;20264;-63
2023/11/04 03:47:25;;;;;;;4.57;1.83;;;;;;;-141.84;88.06;19269.22;4926189;28;20213;-64
2023/11/04 03:49:54;;;;;;;4.07;1.80;;;;;;;-141.84;89.24;19317.97;4926324;28;20241;-64
2023/11/04 03:52:22;;;;;;;5.70;2.30;;;;;;;-141.84;89.71;19338.28;4923677;28;20260;-64
2023/11/04 03:54:51;;;;;;;3.23;1.93;;;;;;;-141.84;89.98;19376.91;4926445;28;20256;-63
2023/11/04 03:57:19;;;;;;;7.53;2.20;;;;;;;-141.84;89.46;19358.63;4925807;28;20599;-63
2023/11/04 03:59:48;;;;;;;4.97;2.10;;;;;;;-141.84;89.39;19342.34;4926823;28;20930;-64
2023/11/04 04:02:16;;;;;;;4.07;1.93;;;;;;;-141.84;89.64;19334.22;4923289;28;20212;-63
2023/11/04 04:04:46;;;;;;;5.53;2.30;;;;;;;-141.84;89.73;19350.50;4929441;28;20261;-63
2023/11/04 04:07:15;;;;;;;5.20;2.20;;;;;;;-141.84;90.65;19395.19;4930281;28;20240;-63
2023/11/04 04:09:43;;;;;;;6.23;2.17;;;;;;;-141.84;89.77;19317.97;4930605;28;20259;-64
2023/11/04 04:12:12;;;;;;;3.80;2.40;;;7.60;99.90;;;-141.84;90.62;19419.59;4922512;28;20228;-64
2023/11/04 04:14:44;;;;;;;7.53;2.50;;;7.70;99.90;;;-141.84;91.76;19468.34;4929809;28;20233;-64
2023/11/04 04:17:12;;;;;;;7.37;2.63;;;7.60;99.90;;;-141.84;90.32;19413.47;4930230;28;20210;-64
2023/11/04 04:19:41;;;;;;;5.97;2.60;;;7.70;99.90;;;-141.84;90.57;19403.31;4930303;28;20237;-64
2023/11/04 04:22:11;;;;;;;5.03;2.13;;;7.60;99.90;;;-141.84;91.85;19480.53;4922228;28;20280;-64
2023/11/04 04:24:39;;;;;;;4.47;2.10;;;;;;;-141.84;93.04;19626.88;4929782;28;20316;-64
2023/11/04 04:27:09;;;;;;;3.70;2.40;;;;;;;-141.84;92.58;19557.78;4929314;28;20248;-64
2023/11/04 04:29:39;;;;;;;4.03;2.40;;;;;;;-141.84;90.82;19419.59;4930009;28;20213;-64
2023/11/04 04:32:08;;;;;;;5.27;2.23;;;;;;;-141.84;92.40;19549.63;4923174;28;20244;-62
2023/11/04 04:34:38;;;;;;;3.53;2.20;;;;;;;-141.84;91.92;19547.59;4930099;28;20237;-64
2023/11/04 04:37:09;;;;;;;3.47;2.20;;;;;;;-141.84;92.88;19606.53;4929774;28;20327;-64
2023/11/04 04:39:39;;;;;;;5.13;2.70;;;;;;;-141.84;92.48;19569.97;4929860;28;20244;-64
2023/11/04 04:42:09;;;;;;;4.07;2.33;;;;;;;-141.84;94.23;19842.28;4922301;28;20229;-63
2023/11/04 04:45:05;;;;;;;5.00;2.30;;;;;;;-141.84;93.89;19824.00;4929872;28;20334;-64
2023/11/04 04:47:36;;;;;;;4.57;2.10;;;;;;;-141.84;94.69;19960.16;4929587;28;20236;-62
2023/11/04 04:50:05;;;;;;;6.40;2.50;;;;;;;-141.84;95.34;20195.94;4922172;28;20903;-64
2023/11/04 04:52:35;;;;;;;6.17;2.67;;;;;;;-141.84;94.60;20029.28;4929072;28;20320;-64
2023/11/04 04:55:04;;;;;;;6.77;2.73;;;;;;;-141.84;95.91;20411.41;4929067;28;20291;-64
2023/11/04 04:57:33;;;;;;;3.13;2.40;;;;;;;-141.84;95.06;20169.53;4929492;28;20316;-63
2023/11/04 05:00:01;;;;;;;4.10;2.50;;;;;;;-141.84;95.19;20187.81;4922511;28;20229;-64
2023/11/04 05:02:30;;;;;;;3.53;2.33;;;;;;;-141.84;96.24;20624.84;4928740;28;20253;-64
2023/11/04 05:04:59;;;;;;;6.57;2.47;;;;;;;-141.84;94.90;20134.97;4929005;28;20244;-64
2023/11/04 05:07:28;;;;;;;5.80;2.33;;;;;;;-141.84;94.64;20161.38;4929204;28;20312;-65
2023/11/04 05:09:58;;;;;;;4.43;2.47;;;;;;;-141.84;96.04;20685.81;4925120;28;20792;-64
2023/11/04 05:12:26;;;;;;;5.03;2.50;;;;;;;-141.84;98.16;22306.31;4926539;28;20267;-64
2023/11/04 05:14:55;;;;;;;5.53;2.67;;;;;;;-141.84;98.53;23046.63;4928830;28;20229;-64
2023/11/04 05:17:25;;;;;;;5.30;2.40;;;;;;;-141.84;100.00;25647.00;4928935;28;20245;-64
2023/11/04 05:19:55;;;;;;;5.53;2.40;;;;;;;-141.84;100.00;29228.91;4928630;28;20239;-64
2023/11/04 05:22:24;;;;;;;4.20;2.70;;;;;;;-141.84;99.35;24841.06;4925797;28;20312;-65
2023/11/04 05:24:52;;;;;;;4.97;2.27;;;;;;;-141.84;96.43;20883.00;4928263;28;20257;-64
2023/11/04 05:27:22;;;;;;;4.60;2.33;;;;;;;-141.84;98.24;22894.06;4928315;28;20229;-64
2023/11/04 05:29:52;;;;;;;4.97;2.20;;;;;;;-141.84;97.55;21751.16;4928629;28;20220;-63
2023/11/04 05:32:21;;;;;;;5.37;2.33;;;;;;;-141.84;96.58;21194.06;4924309;28;20244;-64
2023/11/04 05:34:50;;;;;;;5.70;2.43;;;;;;;-141.84;97.12;21464.47;4928476;28;20287;-64
2023/11/04 05:37:19;;;;;;;4.43;2.90;;;;;;;-141.84;96.44;21033.44;4927569;28;20240;-63
2023/11/04 05:39:47;;;;;;;2.37;2.00;;;;;;;-141.84;96.19;20750.88;4928718;28;20281;-63
2023/11/04 05:42:16;;;;;;;3.30;2.20;;;;;;;-141.84;97.38;21696.25;4920439;28;20622;-62
2023/11/04 05:44:46;;;;;;;3.87;2.10;;;;;;;-141.84;94.10;20057.72;4927634;28;20237;-63
2023/11/04 05:47:14;;;;;;;3.80;2.20;;;;;;;-141.84;95.94;20817.94;4928754;28;20304;-62
2023/11/04 05:49:43;;;;;;;4.43;2.23;;;;;;;-141.84;92.82;19695.97;4927547;28;20241;-62
2023/11/04 05:52:11;;;;;;;4.57;2.40;;;;;;;-141.84;93.37;19777.25;4921304;28;20244;-62
2023/11/04 05:54:40;;;;;;;3.13;2.00;;;;;;;-141.84;94.60;20076.03;4928554;28;20272;-63
2023/11/04 05:57:09;;;;;;;2.60;2.03;;;;;;;-141.84;95.29;20342.28;4927900;28;20692;-62
2023/11/04 05:59:38;;;;;;;2.63;2.03;;;;;;;-141.84;97.14;21291.66;4928597;28;20245;-62
2023/11/04 06:02:08;;;;;;;3.13;2.13;;;;;;;-141.84;94.60;20250.81;4920846;28;20289;-63
2023/11/04 06:04:37;;;;;;;2.83;2.37;;;;;;;-141.84;92.02;19651.25;4927947;28;20280;-62
2023/11/04 06:07:05;;;;;;;3.00;2.23;;;;;;;-141.84;92.46;19604.50;4928020;28;20325;-62
2023/11/04 06:09:35;;;;;;;2.90;2.03;;;;;;;-141.84;93.34;19805.72;4926818;28;20697;-62
2023/11/04 06:12:04;;;;;;;2.43;1.90;;;;;;;-141.84;88.81;19334.22;4920032;28;20300;-62
2023/11/04 06:14:32;;;;;;;3.70;2.00;;;;;;;-141.84;88.36;19297.66;4927702;28;20635;-63
2023/11/04 06:17:01;;;;;;;4.17;1.80;;;;;;;-141.84;87.82;19244.81;4927957;28;20367;-62
2023/11/04 06:19:31;;;;;;;2.40;2.00;;;;;;;-141.84;85.61;19183.84;4927811;28;20264;-62
2023/11/04 06:22:00;;;;;;;3.10;2.07;;;;;;;-141.84;85.45;19179.78;4919445;28;20329;-63
2023/11/04 06:24:28;;;;;;;4.07;2.00;;;;;;;-141.84;85.17;19177.75;4927923;28;20238;-62
2023/11/04 06:26:57;;;;;;;2.30;1.60;;;;;;;-141.84;85.58;19175.72;4927389;28;20217;-62
2023/11/04 06:29:25;;;;;;;4.13;1.97;;;;;;;-141.84;84.28;19171.66;4927393;28;20241;-62
2023/11/04 06:31:54;;;;;;;3.80;2.00;;;;;;;-141.84;86.06;19216.38;4927478;28;20252;-63
2023/11/04 06:34:22;;;;;;;4.13;1.63;;;;;;;-141.84;85.81;19167.59;4925517;28;20705;-62
2023/11/04 06:36:52;;;;;;;3.87;1.83;;;;;;;-141.84;85.78;19179.78;4927396;28;20240;-63
2023/11/04 06:39:21;;;;;;;4.47;2.13;;;;;;;-141.84;87.51;19228.56;4927707;28;20630;-62
2023/11/04 06:41:49;;;;;;;3.07;1.70;;;;;;;-141.84;86.37;19198.09;4927792;28;20216;-63
2023/11/04 06:44:18;;;;;;;3.43;1.73;;;;;;;-141.84;83.41;19149.31;4920108;28;20312;-62
2023/11/04 06:46:50;;;;;;;2.60;1.80;;;;;;;-141.84;82.69;19131.03;4927310;28;20610;-63
2023/11/04 06:49:19;;;;;;;2.40;1.47;;;;;;;-141.84;83.29;19145.25;4927204;28;20344;-63
2023/11/04 06:51:48;;;;;;;1.60;1.43;;;;;;;-141.84;82.11;19161.50;4927180;28;20622;-62
2023/11/04 06:54:18;;;;;;;1.70;1.47;;;;;;;-141.84;80.61;19165.56;4919616;28;20248;-62
2023/11/04 06:56:46;;;;;;;2.77;1.80;;;;;;;-141.84;79.95;19143.22;4927421;28;20232;-63
2023/11/04 06:59:17;;;;;;;3.37;1.67;;;;;;;-141.84;80.44;19143.22;4926995;28;20284;-62
2023/11/04 07:01:49;;;;;;;2.00;1.60;;;;;;;-141.84;79.90;19147.28;4926087;28;20230;-63
2023/11/04 07:04:18;;;;;;;2.17;1.50;;;;;;;-141.84;78.98;19135.09;4919340;28;20245;-62
2023/11/04 07:06:51;;;;;;;3.13;1.70;;;;;;;-141.84;78.73;19163.53;4927019;28;20239;-63
2023/11/04 07:09:21;;;;;;;2.30;1.50;;;;;;;-141.84;78.59;19157.44;4926730;28;20304;-62
2023/11/04 07:11:49;;;;;;;1.80;1.53;;;;;;;-141.84;76.68;19147.28;4927079;28;20312;-62
2023/11/04 07:14:19;;;;;;;3.13;1.50;;;;;;;-141.84;77.21;19151.34;4919473;28;20248;-63
2023/11/04 07:16:47;;;;;;;3.83;1.70;;;;;;;-141.84;76.51;19165.56;4926743;28;20277;-63
2023/11/04 07:19:16;;;;;;;3.90;1.90;;;;;;;-141.84;75.96;19169.63;4925988;28;20233;-63
2023/11/04 07:21:45;;;;;;;3.33;1.80;;;;;;;-141.84;76.06;19137.13;4927055;28;20248;-63
2023/11/04 07:24:14;;;;;;;2.70;1.90;;;;;;;-141.84;75.76;19126.97;4919535;28;21226;-62
2023/11/04 07:26:45;;;;;;;2.97;1.43;;;;;;;-141.84;76.66;19112.75;4926699;28;20245;-63
2023/11/04 07:29:13;;;;;;;2.53;1.87;;;;;;;-141.84;77.78;19131.03;4926278;28;20213;-63
2023/11/04 07:31:42;;;;;;;2.07;1.33;;;;;;;-141.84;80.06;19159.47;4926585;28;20263;-62
2023/11/04 07:34:10;;;;;;;2.10;1.77;;;;;;;-141.84;77.10;19126.97;4917886;28;20245;-63
2023/11/04 07:36:39;;;;;;;5.57;1.60;;;;;;;-141.84;76.67;19135.09;4925910;28;20249;-63
2023/11/04 07:39:07;;;;;;;3.97;1.93;;;;;;;-141.84;77.00;19167.59;4925394;28;20697;-63
2023/11/04 07:41:41;;;;;;;3.27;1.70;;;;;;;-141.84;74.61;19157.44;4926220;28;20213;-63
2023/11/04 07:44:11;;;;;;;3.00;1.57;;;;;;;-141.84;74.00;19141.19;4918203;28;20229;-63
2023/11/04 07:46:40;;;;;;;1.83;1.50;;;;;;;-141.84;73.07;19149.31;4924945;28;20724;-63
2023/11/04 07:49:08;;;;;;;1.60;1.43;;;;;;;-141.84;73.34;19139.16;4925626;28;20332;-62
2023/11/04 07:51:38;;;;;;;3.90;1.90;;;;;;;-141.84;72.81;19159.47;4925506;28;20240;-63
2023/11/04 07:54:06;;;;;;;2.27;1.40;;;;;;;-141.84;73.41;19139.16;4918863;28;20280;-62
2023/11/04 07:56:35;;;;;;;1.80;1.43;;;;;;;-141.84;72.82;19137.13;4926995;28;20237;-63
2023/11/04 07:59:04;;;;;;;4.83;1.60;;;;;;;-141.84;72.22;19151.34;4925580;28;20791;-63
2023/11/04 08:01:33;;;;;;;1.50;1.40;;;;;;;-141.84;72.65;19145.25;4925720;28;20308;-63
2023/11/04 08:04:02;;;;;;;3.90;1.53;;;;;;;-141.84;73.40;19122.91;4919094;28;20265;-63
2023/11/04 08:06:31;;;;;;;2.60;1.40;;;;;;;-141.84;72.20;19187.91;4925748;28;20239;-63
2023/11/04 08:09:00;;;;;;;2.20;1.37;;;;;;;-141.84;70.87;19151.34;4924933;28;20245;-63
2023/11/04 08:11:29;;;;;;;1.70;1.50;;;;;;;-141.84;70.83;19187.91;4926380;28;20314;-63
2023/11/04 08:13:57;;;;;;;1.60;1.37;;;;;;;-141.84;69.15;19216.38;4899165;28;20237;-63
2023/11/04 08:16:26;;;;;;;4.43;2.70;;;;;;;-141.84;69.00;19200.13;4906926;29;20237;-62
2023/11/04 08:18:56;;;;;;;3.00;1.80;;;;;;;-141.84;69.43;19167.59;4907023;29;20302;-63
2023/11/04 08:21:29;;;;;;;3.87;1.70;;;;;;;-141.84;69.55;19200.13;4905435;28;20238;-63
2023/11/04 08:23:58;;;;;;;3.60;1.83;;;;;;;-141.84;69.85;19200.13;4900146;29;20238;-64
2023/11/04 08:26:27;;;;;;;3.23;1.50;;;;;;;-141.84;68.20;19192.00;4907447;29;20561;-62
2023/11/04 08:28:55;;;;;;;2.27;1.50;;;;;;;-141.84;68.88;19181.81;4906767;29;20277;-62
2023/11/04 08:31:24;;;;;;;2.27;1.50;;;;;;;-141.84;69.31;19187.91;4905227;29;20262;-63
2023/11/04 08:33:52;;;;;;;3.27;1.57;;;;;;;-141.84;69.58;19167.59;4924803;28;20324;-63
2023/11/04 08:36:24;;;;;;;2.17;1.50;;;;;;;-141.84;69.24;19222.47;4924975;28;20704;-63
2023/11/04 08:38:53;;;;;;;2.40;1.57;;;;;;;-141.84;68.83;19196.06;4926250;28;20265;-62
2023/11/04 08:41:21;;;;;;;2.17;1.50;;;;;;;-141.84;68.97;19198.09;4925162;28;20720;-63
2023/11/04 08:43:50;;;;;;;1.33;1.17;;;;;;;-141.84;67.78;19208.25;4925441;28;20608;-62
2023/11/04 08:46:20;;;;;;;1.70;1.40;;;;;;;-141.84;67.46;19208.25;4919274;28;20327;-62
2023/11/04 08:48:48;;;;;;;2.70;1.50;;;;;;;-141.84;67.16;19206.22;4929033;28;20237;-62
2023/11/04 08:51:17;;;;;;;2.50;1.40;;;;;;;-141.84;67.26;19238.72;4928774;28;20698;-63
2023/11/04 08:53:47;;;;;;;2.10;1.50;;;;;;;-141.84;66.68;19254.97;4928809;28;20300;-63
2023/11/04 08:56:16;;;;;;;1.57;1.20;;;;;;;-141.84;67.06;19206.22;4921863;28;20253;-63
2023/11/04 08:58:44;;;;;;;1.60;1.47;;;;;;;-141.84;66.28;19234.66;4928608;28;20233;-62
2023/11/04 09:01:13;;;;;;;2.07;1.23;;;;;;;-141.84;66.90;19200.13;4928620;28;20325;-64
2023/11/04 09:03:42;;;;;;;1.90;1.40;;;;;;;-141.84;66.91;19240.75;4929040;28;20757;-63
2023/11/04 09:06:22;;;;;;;2.73;1.40;;;;;;;-141.84;66.08;19254.97;4924890;28;20281;-63
2023/11/04 09:08:52;;;;;;;1.80;1.30;;;;;;;-141.84;67.17;19228.56;4928843;28;20626;-62
2023/11/04 09:11:21;;;;;;;1.97;1.53;;;;;;;-141.84;65.43;19236.69;4923640;28;20690;-62
2023/11/04 09:13:50;;;;;;;3.07;1.30;;;;;;;-141.84;65.00;19240.75;4927766;28;20651;-64
2023/11/04 09:16:18;;;;;;;3.43;2.00;;;;;;;-141.84;65.48;19238.72;4913581;28;20246;-63
2023/11/04 09:18:47;;;;;;;3.07;1.90;;;;;;;-141.84;65.06;19246.84;4909028;28;20269;-62
2023/11/04 09:21:15;;;;;;;3.63;2.17;;;;;;;-141.84;64.94;19269.22;4909339;28;20917;-63
2023/11/04 09:23:44;;;;;;;2.77;1.70;;;;;;;-141.84;64.65;19273.28;4909154;28;20245;-62
2023/11/04 09:26:14;;;;;;;4.20;1.80;;;;;;;-141.84;63.94;19267.16;4903994;28;20203;-63
2023/11/04 09:28:43;;;;;;;2.40;1.50;;;;;;;-141.84;64.09;19271.25;4921847;28;20318;-61
2023/11/04 09:31:12;;;;;;;3.63;1.90;;;;;;;-141.84;64.31;19246.84;4922326;28;20259;-61
2023/11/04 09:33:41;;;;;;;3.00;1.60;;;;;;;-141.84;64.20;19261.06;4918409;28;20234;-60
2023/11/04 09:36:12;;;;;;;2.43;1.60;;;;;;;-141.84;63.34;19289.53;4921516;28;20233;-59
2023/11/04 09:38:41;;;;;;;2.63;1.30;;;;;;;-141.84;62.69;19285.47;4928439;28;20209;-60
2023/11/04 09:41:11;;;;;;;1.87;1.40;;;;;;;-141.84;61.91;19287.50;4926894;28;20756;-60
2023/11/04 09:43:41;;;;;;;2.73;1.20;;;;;;;-141.84;62.13;19291.56;4926558;28;20256;-60
2023/11/04 09:46:10;;;;;;;1.80;1.10;;;;;;;-141.84;63.19;19297.66;4918459;28;20292;-60
2023/11/04 09:48:39;;;;;;;1.17;0.93;;;;;;;-141.84;60.78;19324.06;4927018;28;20237;-60
2023/11/04 09:51:13;;;;;;;3.53;1.10;;;;;;;-141.84;61.21;19297.66;4926738;28;20292;-60
2023/11/04 09:53:51;;;;;;;1.97;1.00;;;;;;;-141.84;60.12;19328.13;4920864;28;20219;-61
2023/11/04 09:56:22;;;;;;;1.70;1.03;;;;;;;-141.84;59.45;19326.09;4920499;28;20249;-60
2023/11/04 09:58:52;;;;;;;2.53;1.27;;;;;;;-141.84;59.48;19342.34;4926138;28;20300;-60
2023/11/04 10:01:20;;;;;;;1.20;1.00;;;;;;;-141.84;61.07;19358.63;4927080;28;20298;-60
2023/11/04 10:03:49;;;;;;;1.07;0.90;;;;;;;-141.84;59.08;19277.34;4926136;28;20239;-59
2023/11/04 10:06:19;;;;;;;1.53;1.07;;;;;;;-141.84;59.80;19338.28;4918305;28;20263;-59
2023/11/04 10:08:48;;;;;;;3.67;1.33;;;;;;;-141.84;60.09;19362.69;4914360;29;20301;-59
2023/11/04 10:11:16;;;;;;;1.50;1.07;;;;;;;-141.84;59.54;19374.88;4919047;28;20218;-60
2023/11/04 10:13:45;;;;;;;1.83;1.10;;;;;;;-141.84;59.69;19334.22;4921716;28;20261;-61
2023/11/04 10:16:18;;;;;;;4.73;1.50;;;;;;;-141.84;59.23;19383.00;4914736;28;20314;-61
2023/11/04 10:18:48;;;;;;;2.20;0.93;;;;;;;-141.84;55.50;19364.72;4912106;28;20360;-60
2023/11/04 10:21:19;;;;;;;0.90;0.80;;;;;;;-141.84;56.22;19399.25;4925890;28;20296;-63
2023/11/04 10:23:47;;;;;;;1.40;0.80;;;;;;;-141.84;56.07;19364.72;4914768;28;20265;-62
2023/11/04 10:26:17;;;;;;;2.43;1.50;;;;;;;-141.84;56.67;19383.00;4916891;28;20249;-60
2023/11/04 10:28:46;;;;;;;2.27;0.70;;;;;;;-141.84;56.43;19360.66;4924972;28;20237;-59
2023/11/04 10:31:17;;;;;;;1.37;0.90;;;;;;;-141.84;56.64;19380.97;4925914;28;20697;-59
2023/11/04 10:33:48;;;;;;;0.80;0.70;;;;;;;-141.84;56.27;19376.91;4924986;28;20233;-60
2023/11/04 10:36:18;;;;;;;2.40;0.80;;;;;;;-141.84;54.59;19391.13;4918575;28;20235;-61
2023/11/04 10:38:55;;;;;;;1.80;0.83;;;;;;;-141.84;55.57;19368.78;4924202;28;20257;-60
2023/11/04 10:41:30;;;;;;;0.80;0.73;;;;;;;-141.84;55.28;19393.16;4910927;28;20214;-59
2023/11/04 10:44:06;;;;;;;0.77;0.73;;;;;;;-141.84;55.64;19374.88;4899542;28;20327;-61
2023/11/04 10:46:43;;;;;;;1.43;0.80;;;;;;;-141.84;57.53;19303.75;4915578;28;20237;-60
2023/11/04 10:49:20;;;;;;;1.00;0.80;;;;;;;-141.84;58.75;19313.91;4909332;28;20226;-60
2023/11/04 10:51:58;;;;;;;0.90;0.77;;;;;;;-141.84;57.81;19358.63;4926102;28;20236;-59
2023/11/04 10:54:36;;;;;;;1.43;0.87;;;;;;;-141.84;59.27;19330.16;4925678;28;20329;-59
2023/11/04 10:57:14;;;;;;;0.93;0.77;;;;;;;-141.84;58.49;19334.22;4925926;28;20243;-60
2023/11/04 10:59:54;;;;;;;2.00;0.87;;;;;;;-141.84;55.29;19391.13;4921753;28;20706;-60
2023/11/04 11:02:25;;;;;;;0.77;0.70;;;;;;;-141.84;56.54;19376.91;4920690;28;20221;-59
2023/11/04 11:04:56;;;;;;;1.83;0.90;;;;;;;-141.84;56.06;19383.00;4925460;28;20237;-59
2023/11/04 11:07:24;;;;;;;0.70;0.70;;;;;;;-141.84;55.50;19397.22;4925923;28;20229;-60
2023/11/04 11:09:53;;;;;;;0.67;0.60;;;;;;;-141.84;55.28;19427.72;4925449;28;20225;-60
2023/11/04 11:12:24;;;;;;;0.90;0.60;;;;;;;-141.84;51.14;19484.59;4925389;28;20240;-59
2023/11/04 11:14:54;;;;;;;0.70;0.67;;;;;;;-141.84;50.17;19529.31;4920630;28;20230;-60
2023/11/04 11:17:32;;;;;;;1.35;0.70;;;;;;;-141.84;48.85;19553.72;4912113;28;20826;-59
2023/11/04 11:20:09;;;;;;;0.80;0.70;;;;;;;-141.84;48.23;19509.00;4910619;28;20284;-60
2023/11/04 11:22:37;;;;;;;1.23;0.93;;;;;;;-141.84;49.67;19468.34;4906638;29;20298;-61
2023/11/04 11:25:07;;;;;;;1.73;0.90;;;;;;;-141.84;50.98;19452.09;4906958;28;20717;-59
2023/11/04 11:27:45;;;;;;;1.33;0.80;;;;;;;-141.84;54.69;19395.19;4923745;28;20256;-60
2023/11/04 11:30:15;;;;;;;0.93;0.77;;;;;;;-141.84;54.05;19441.94;4913873;28;20229;-59
2023/11/04 11:32:45;;;;;;;2.60;0.80;;;;;;;-141.84;50.49;19470.38;4925013;28;20374;-59